Time;durP1;ratioP1;P1;durP2;ratioP2;P2;SDS_P1;SDS_P2;PMS_P1;PMS_P2;Temp;Humidity;BMP_temperature;BMP_pressure;BME280_temperature;BME280_humidity;BME280_pressure;Samples;Min_cycle;Max_cycle;Signal;HPM_P1;HPM_P2
2021/06/29 00:02:16;;;;;;;8.80;4.68;;;20.50;82.00;;;;;;5076096;28;20040;-91
2021/06/29 00:04:42;;;;;;;9.98;4.75;;;20.50;82.30;;;;;;5073494;28;20063;-91
2021/06/29 00:07:08;;;;;;;12.02;4.72;;;20.50;82.30;;;;;;5075554;28;20056;-91
2021/06/29 00:09:34;;;;;;;7.95;4.53;;;20.50;82.30;;;;;;5075000;28;20099;-91
2021/06/29 00:12:00;;;;;;;10.43;4.75;;;20.40;82.30;;;;;;5074861;28;20686;-92
2021/06/29 00:14:27;;;;;;;9.18;4.60;;;20.40;82.60;;;;;;5075198;28;20094;-90
2021/06/29 00:16:53;;;;;;;10.20;4.68;;;20.40;82.50;;;;;;5075382;28;20121;-91
2021/06/29 00:19:19;;;;;;;8.85;4.68;;;20.40;82.20;;;;;;5074803;28;20072;-90
2021/06/29 00:21:47;;;;;;;9.43;4.47;;;20.40;82.40;;;;;;5075345;28;20124;-90
2021/06/29 00:24:12;;;;;;;10.38;4.88;;;20.40;82.20;;;;;;5074959;28;20523;-91
2021/06/29 00:26:38;;;;;;;7.72;4.53;;;20.30;82.30;;;;;;5074446;28;20052;-90
2021/06/29 00:29:04;;;;;;;8.95;4.80;;;20.30;82.60;;;;;;5074826;28;20135;-90
2021/06/29 00:31:30;;;;;;;8.82;4.43;;;20.30;82.80;;;;;;5074203;28;20039;-90
2021/06/29 00:33:55;;;;;;;10.13;4.78;;;20.30;82.50;;;;;;5074428;28;20048;-90
2021/06/29 00:36:21;;;;;;;8.65;4.55;;;20.30;82.10;;;;;;5074773;28;20570;-90
2021/06/29 00:38:47;;;;;;;11.38;4.55;;;20.20;81.80;;;;;;5074873;28;20055;-90
2021/06/29 00:41:13;;;;;;;9.68;4.57;;;20.20;81.50;;;;;;5074316;28;20045;-91
2021/06/29 00:43:51;;;;;;;10.98;4.72;;;20.10;81.80;;;;;;5074992;28;20083;-91
2021/06/29 00:46:17;;;;;;;10.35;4.90;;;20.10;81.80;;;;;;5075090;28;20059;-91
2021/06/29 00:48:45;;;;;;;9.07;4.85;;;20.10;81.80;;;;;;5074503;28;20532;-92
2021/06/29 00:51:13;;;;;;;10.45;5.18;;;20.10;81.80;;;;;;5074759;28;20124;-92
2021/06/29 00:53:39;;;;;;;9.88;4.60;;;20.00;82.10;;;;;;5074514;28;20054;-90
2021/06/29 00:56:13;;;;;;;8.60;4.63;;;20.00;81.90;;;;;;5074308;28;20139;-92
2021/06/29 00:58:46;;;;;;;11.90;5.30;;;20.00;82.30;;;;;;5074527;28;20059;-91
2021/06/29 01:01:12;;;;;;;10.32;4.78;;;20.00;82.20;;;;;;5074266;28;20075;-91
2021/06/29 01:03:39;;;;;;;11.70;5.05;;;19.90;82.10;;;;;;5074618;28;20143;-91
2021/06/29 01:06:09;;;;;;;10.65;4.85;;;19.90;82.30;;;;;;5074592;28;20663;-90
2021/06/29 01:08:35;;;;;;;9.30;4.75;;;19.90;82.20;;;;;;5073775;28;20137;-91
2021/06/29 01:11:00;;;;;;;8.18;4.50;;;19.80;82.30;;;;;;5074296;28;20075;-90
2021/06/29 01:13:34;;;;;;;10.77;4.55;;;19.80;82.30;;;;;;5074178;28;20056;-91
2021/06/29 01:16:02;;;;;;;10.05;4.70;;;19.80;82.40;;;;;;5073667;28;20048;-90
2021/06/29 01:18:30;;;;;;;8.68;4.75;;;19.80;82.00;;;;;;5073926;28;20072;-90
2021/06/29 01:20:56;;;;;;;9.02;4.68;;;19.70;82.00;;;;;;5073579;28;20451;-90
2021/06/29 01:23:25;;;;;;;10.20;4.55;;;19.70;82.30;;;;;;5073179;28;20052;-90
2021/06/29 01:26:14;;;;;;;13.35;5.28;;;19.70;82.90;;;;;;5073949;28;20408;-91
2021/06/29 01:31:23;;;;;;;7.80;4.13;;;19.60;82.50;;;;;;5053089;28;20045;-89
2021/06/29 01:33:51;;;;;;;9.18;4.95;;;19.60;82.50;;;;;;5054049;28;20381;-90
2021/06/29 01:36:18;;;;;;;11.52;4.90;;;19.60;82.90;;;;;;5052957;28;20053;-90
2021/06/29 01:38:46;;;;;;;12.80;4.93;;;19.60;83.00;;;;;;5053147;28;20481;-90
2021/06/29 01:41:19;;;;;;;9.68;4.65;;;19.60;83.10;;;;;;5053481;28;20107;-90
2021/06/29 01:43:52;;;;;;;11.70;4.68;;;19.50;82.40;;;;;;5053186;28;20067;-90
2021/06/29 01:46:19;;;;;;;12.18;4.90;;;19.50;82.90;;;;;;5053299;28;20144;-89
2021/06/29 01:48:53;;;;;;;9.90;4.70;;;19.50;83.00;;;;;;5052581;28;20049;-87
2021/06/29 01:51:20;;;;;;;8.30;4.38;;;19.50;82.80;;;;;;5062023;28;20040;-88
2021/06/29 01:53:48;;;;;;;11.32;4.95;;;19.50;82.90;;;;;;5073264;28;20052;-88
2021/06/29 01:56:15;;;;;;;8.07;4.57;;;19.40;83.00;;;;;;5072790;28;20049;-88
2021/06/29 01:59:03;;;;;;;9.43;5.10;;;19.40;83.00;;;;;;5052205;28;20044;-89
2021/06/29 02:01:29;;;;;;;10.13;5.07;;;19.30;82.10;;;;;;5052219;28;20052;-88
2021/06/29 02:03:55;;;;;;;10.60;4.85;;;19.40;82.80;;;;;;5052879;28;20421;-88
2021/06/29 02:06:20;;;;;;;10.88;4.68;;;19.30;82.70;;;;;;5052355;28;20102;-89
2021/06/29 02:08:46;;;;;;;10.00;5.10;;;19.30;82.60;;;;;;5052996;28;20049;-90
2021/06/29 02:11:12;;;;;;;9.25;4.80;;;19.30;82.70;;;;;;5053132;28;20048;-89
2021/06/29 02:13:39;;;;;;;9.15;4.60;;;19.20;82.80;;;;;;5052211;28;20057;-90
2021/06/29 02:16:05;;;;;;;9.73;4.93;;;19.20;82.60;;;;;;5052969;28;20455;-89
2021/06/29 02:18:31;;;;;;;10.10;5.05;;;19.20;82.60;;;;;;5051999;28;20507;-89
2021/06/29 02:20:57;;;;;;;10.23;4.47;;;19.20;82.80;;;;;;5052931;28;20045;-89
2021/06/29 02:23:23;;;;;;;8.45;4.63;;;19.20;82.50;;;;;;5052885;28;20049;-91
2021/06/29 02:25:49;;;;;;;8.70;5.15;;;19.20;82.40;;;;;;5052327;28;20052;-89
2021/06/29 02:28:15;;;;;;;10.07;4.95;;;19.10;82.40;;;;;;5070996;28;20049;-90
2021/06/29 02:30:41;;;;;;;9.68;4.53;;;19.10;82.70;;;;;;5072774;28;20045;-90
2021/06/29 02:33:08;;;;;;;10.60;5.00;;;19.00;82.20;;;;;;5072488;28;20044;-89
2021/06/29 02:35:34;;;;;;;8.80;4.70;;;19.00;82.40;;;;;;5072995;28;20052;-90
2021/06/29 02:38:00;;;;;;;10.73;4.80;;;19.00;82.90;;;;;;5073091;28;20059;-90
2021/06/29 02:40:25;;;;;;;9.52;5.03;;;19.00;83.00;;;;;;5072320;28;20044;-91
2021/06/29 02:42:53;;;;;;;11.35;5.32;;;19.00;83.20;;;;;;5073086;28;20052;-90
2021/06/29 02:45:20;;;;;;;12.05;5.35;;;19.00;83.00;;;;;;5072920;28;20052;-90
2021/06/29 02:47:47;;;;;;;10.60;5.15;;;18.90;83.20;;;;;;5071698;28;20044;-91
2021/06/29 02:50:13;;;;;;;9.05;4.90;;;18.90;83.50;;;;;;5072936;28;20061;-89
2021/06/29 02:52:39;;;;;;;10.25;4.88;;;18.90;83.70;;;;;;5072816;28;20455;-90
2021/06/29 02:55:08;;;;;;;11.15;4.95;;;18.90;83.40;;;;;;5072379;28;20048;-89
2021/06/29 02:57:34;;;;;;;11.10;4.82;;;18.90;83.30;;;;;;5072035;28;20036;-90
2021/06/29 03:00:00;;;;;;;10.98;4.78;;;18.80;83.30;;;;;;5072411;28;20392;-90
2021/06/29 03:02:26;;;;;;;10.40;4.75;;;18.80;83.60;;;;;;5071688;28;20045;-90
2021/06/29 03:04:52;;;;;;;9.18;4.28;;;18.80;83.40;;;;;;5072780;28;20416;-91
2021/06/29 03:07:18;;;;;;;11.77;4.97;;;18.80;83.00;;;;;;5072771;28;20055;-90
2021/06/29 03:09:43;;;;;;;13.02;4.60;;;18.80;82.80;;;;;;5071991;28;20052;-90
2021/06/29 03:12:09;;;;;;;13.15;5.07;;;18.80;83.30;;;;;;5072353;28;20106;-90
2021/06/29 03:14:36;;;;;;;10.38;4.30;;;18.80;83.40;;;;;;5075179;28;20186;-90
2021/06/29 03:17:03;;;;;;;13.95;4.82;;;18.80;82.80;;;;;;5076210;28;20507;-91
2021/06/29 03:19:34;;;;;;;10.68;5.13;;;18.70;82.90;;;;;;5076116;28;20059;-90
2021/06/29 03:22:02;;;;;;;11.73;4.93;;;18.70;82.60;;;;;;5075808;28;20044;-91
2021/06/29 03:24:28;;;;;;;10.57;5.20;;;18.70;82.50;;;;;;5076119;28;20492;-91
2021/06/29 03:26:55;;;;;;;9.15;4.22;;;18.60;82.90;;;;;;5076349;28;20183;-90
2021/06/29 03:29:21;;;;;;;9.73;4.68;;;18.70;82.30;;;;;;5075330;28;20052;-91
2021/06/29 03:31:47;;;;;;;9.48;4.45;;;18.60;82.20;;;;;;5076342;28;20404;-91
2021/06/29 03:34:13;;;;;;;10.60;4.65;;;18.70;82.90;;;;;;5076072;28;20053;-90
2021/06/29 03:36:39;;;;;;;7.88;4.25;;;18.60;83.00;;;;;;5075128;28;20453;-89
2021/06/29 03:39:06;;;;;;;9.52;4.53;;;18.60;83.00;;;;;;5075646;28;20072;-90
2021/06/29 03:41:32;;;;;;;9.90;4.15;;;18.60;83.00;;;;;;5075609;28;20041;-91
2021/06/29 03:43:59;;;;;;;10.35;4.57;;;18.60;83.10;;;;;;5075347;28;20055;-90
2021/06/29 03:46:24;;;;;;;10.93;4.50;;;18.60;83.00;;;;;;5075531;28;20451;-90
2021/06/29 03:48:50;;;;;;;11.20;4.35;;;18.60;82.90;;;;;;5057254;28;20246;-90
2021/06/29 03:51:16;;;;;;;10.63;4.72;;;18.60;82.60;;;;;;5074617;28;20045;-89
2021/06/29 03:53:42;;;;;;;10.48;4.55;;;18.60;83.00;;;;;;5074863;28;20055;-88
2021/06/29 03:58:53;;;;;;;9.43;4.70;;;18.60;83.00;;;;;;5074348;28;20370;-88
2021/06/29 04:01:19;;;;;;;11.05;4.57;;;18.60;83.30;;;;;;5073026;28;20052;-88
2021/06/29 04:03:45;;;;;;;11.77;4.72;;;18.60;83.20;;;;;;5074389;28;20048;-88
2021/06/29 04:06:11;;;;;;;10.88;4.30;;;18.60;83.00;;;;;;5074642;28;20393;-89
2021/06/29 04:08:37;;;;;;;11.30;4.20;;;18.50;82.90;;;;;;5073412;28;20051;-89
2021/06/29 04:11:03;;;;;;;10.65;4.25;;;18.60;83.00;;;;;;5073601;28;20131;-88
2021/06/29 04:13:29;;;;;;;9.20;4.43;;;18.50;82.70;;;;;;5074101;28;20450;-88
2021/06/29 04:15:55;;;;;;;10.68;4.00;;;18.50;83.20;;;;;;5074523;28;20070;-89
2021/06/29 04:18:21;;;;;;;9.23;4.32;;;18.50;83.20;;;;;;5073962;28;20056;-89
2021/06/29 04:20:47;;;;;;;9.95;4.45;;;18.50;83.10;;;;;;5074513;28;20041;-88
2021/06/29 04:23:12;;;;;;;15.90;4.85;;;18.50;82.90;;;;;;5074569;28;20048;-88
2021/06/29 04:25:38;;;;;;;9.35;4.05;;;18.50;82.70;;;;;;5072640;28;20048;-88
2021/06/29 04:28:04;;;;;;;10.88;4.05;;;18.50;82.60;;;;;;5074353;28;20052;-90
2021/06/29 04:30:30;;;;;;;10.82;4.10;;;18.50;82.60;;;;;;5074567;28;20101;-90
2021/06/29 04:32:56;;;;;;;9.02;3.90;;;18.50;82.50;;;;;;5073841;28;20484;-89
2021/06/29 04:35:22;;;;;;;9.80;3.45;;;18.50;82.20;;;;;;5074065;28;20051;-89
2021/06/29 04:37:48;;;;;;;10.57;4.45;;;18.50;81.80;;;;;;5074483;28;20526;-89
2021/06/29 04:40:14;;;;;;;7.40;3.55;;;18.50;82.00;;;;;;5073566;28;20144;-89
2021/06/29 04:42:40;;;;;;;10.30;4.25;;;18.50;81.90;;;;;;5073922;28;20048;-89
2021/06/29 04:45:07;;;;;;;16.23;5.78;;;18.40;81.70;;;;;;5074283;28;20067;-90
2021/06/29 04:47:39;;;;;;;8.85;3.95;;;18.40;82.80;;;;;;5073281;28;20049;-89
2021/06/29 04:50:05;;;;;;;10.35;3.88;;;18.40;82.50;;;;;;5074402;28;20052;-90
2021/06/29 04:52:33;;;;;;;9.25;4.25;;;18.40;82.40;;;;;;5074009;28;20045;-89
2021/06/29 04:54:58;;;;;;;12.55;4.20;;;18.40;82.30;;;;;;5073537;28;20541;-90
2021/06/29 04:57:24;;;;;;;12.05;4.18;;;18.40;82.00;;;;;;5073655;28;20041;-89
2021/06/29 04:59:51;;;;;;;10.15;4.00;;;18.40;82.30;;;;;;5073965;28;20102;-89
2021/06/29 05:02:17;;;;;;;9.80;4.15;;;18.40;83.20;;;;;;5053275;28;20123;-89
2021/06/29 05:04:42;;;;;;;9.00;3.85;;;18.40;83.20;;;;;;5053607;28;20052;-89
2021/06/29 05:07:08;;;;;;;30.48;6.78;;;18.40;83.50;;;;;;5068920;28;20048;-90
2021/06/29 05:09:34;;;;;;;9.60;4.55;;;18.40;84.10;;;;;;5072297;28;20447;-90
2021/06/29 05:12:00;;;;;;;12.82;4.13;;;18.40;84.30;;;;;;5073717;28;20051;-90
2021/06/29 05:14:25;;;;;;;11.25;4.15;;;18.40;83.40;;;;;;5072706;28;20052;-89
2021/06/29 05:16:51;;;;;;;11.95;4.75;;;18.40;82.90;;;;;;5073543;28;20424;-90
2021/06/29 05:19:17;;;;;;;11.00;4.53;;;18.40;83.10;;;;;;5073381;28;20049;-90
2021/06/29 05:21:43;;;;;;;11.50;5.07;;;18.40;82.90;;;;;;5073549;28;20048;-91
2021/06/29 05:24:08;;;;;;;18.05;5.72;;;18.40;83.30;;;;;;5073296;28;20515;-90
2021/06/29 05:26:36;;;;;;;12.77;4.55;;;18.40;83.50;;;;;;5073714;28;20040;-91
2021/06/29 05:29:02;;;;;;;18.48;5.63;;;18.40;83.10;;;;;;5073211;28;20093;-91
2021/06/29 05:31:28;;;;;;;24.17;6.50;;;18.40;83.60;;;;;;5074036;28;20430;-91
2021/06/29 05:33:54;;;;;;;13.68;4.63;;;18.50;84.40;;;;;;5073454;28;20052;-91
2021/06/29 05:36:19;;;;;;;39.13;9.48;;;18.50;83.80;;;;;;5072944;28;20392;-90
2021/06/29 05:38:45;;;;;;;40.47;11.00;;;18.40;85.30;;;;;;5073607;28;20135;-92
2021/06/29 05:41:11;;;;;;;39.50;9.63;;;18.40;86.40;;;;;;5073851;28;20044;-93
2021/06/29 05:43:37;;;;;;;23.20;6.60;;;18.50;86.10;;;;;;5073295;28;20117;-91
2021/06/29 05:46:03;;;;;;;15.52;6.00;;;18.50;85.10;;;;;;5074030;28;20056;-92
2021/06/29 05:48:32;;;;;;;24.92;7.32;;;18.40;84.00;;;;;;5073101;28;20064;-91
2021/06/29 05:50:58;;;;;;;18.13;6.65;;;18.40;83.90;;;;;;5075464;28;20052;-92
2021/06/29 05:53:24;;;;;;;18.42;6.32;;;18.40;84.20;;;;;;5073529;28;20080;-84
2021/06/29 05:55:49;;;;;;;33.03;9.15;;;18.40;84.30;;;;;;5073017;28;20083;-83
2021/06/29 05:58:15;;;;;;;31.77;9.25;;;18.40;84.50;;;;;;5071918;28;20055;-83
2021/06/29 06:00:41;;;;;;;46.72;13.02;;;18.50;85.20;;;;;;5072551;28;20048;-83
2021/06/29 06:03:07;;;;;;;35.22;9.57;;;18.40;87.10;;;;;;5072743;28;20455;-90
2021/06/29 06:05:33;;;;;;;57.40;13.30;;;18.50;86.30;;;;;;5073424;28;20048;-90
2021/06/29 06:07:59;;;;;;;49.65;12.68;;;18.50;87.60;;;;;;5073398;28;20041;-92
2021/06/29 06:10:24;;;;;;;20.08;6.97;;;18.40;88.70;;;;;;5072740;28;20579;-91
2021/06/29 06:12:50;;;;;;;23.58;7.75;;;18.40;87.60;;;;;;5070928;28;20044;-90
2021/06/29 06:15:16;;;;;;;37.50;9.93;;;18.40;86.20;;;;;;5070148;28;20484;-93
2021/06/29 06:17:42;;;;;;;27.40;7.43;;;18.40;86.30;;;;;;5072935;28;20132;-94
2021/06/29 06:20:10;;;;;;;46.78;12.23;;;18.40;85.10;;;;;;5073653;28;20048;-93
2021/06/29 06:22:36;;;;;;;31.48;9.10;;;18.40;86.70;;;;;;5070276;28;20064;-91
2021/06/29 06:25:02;;;;;;;26.08;8.13;;;18.40;86.20;;;;;;5071269;28;20079;-92
2021/06/29 06:27:27;;;;;;;24.05;7.65;;;18.40;86.60;;;;;;5073108;28;20112;-90
2021/06/29 06:29:53;;;;;;;24.80;8.20;;;18.40;86.00;;;;;;5070589;28;20098;-89
2021/06/29 06:32:19;;;;;;;33.55;9.88;;;18.40;85.70;;;;;;5070934;28;20083;-89
2021/06/29 06:34:44;;;;;;;37.30;11.10;;;18.40;86.00;;;;;;5070492;28;20056;-89
2021/06/29 06:37:10;;;;;;;24.02;8.15;;;18.40;87.30;;;;;;5073276;28;20052;-89
2021/06/29 06:39:35;;;;;;;33.13;9.85;;;18.40;86.50;;;;;;5071791;28;20477;-89
2021/06/29 06:42:01;;;;;;;33.20;10.65;;;18.40;87.10;;;;;;5072741;28;20508;-87
2021/06/29 06:44:27;;;;;;;27.75;9.35;;;18.50;88.10;;;;;;5072187;28;20070;-88
2021/06/29 06:46:53;;;;;;;36.70;11.10;;;18.50;87.60;;;;;;5070156;28;20055;-89
2021/06/29 06:49:19;;;;;;;27.40;9.05;;;18.50;88.60;;;;;;5074185;28;20406;-88
2021/06/29 06:51:44;;;;;;;28.38;9.50;;;18.50;88.10;;;;;;5075741;28;20407;-90
2021/06/29 06:54:10;;;;;;;26.10;8.27;;;18.50;88.40;;;;;;5076053;28;20080;-87
2021/06/29 06:56:36;;;;;;;33.10;10.32;;;18.50;87.60;;;;;;5076557;28;20048;-88
2021/06/29 06:59:05;;;;;;;31.98;10.55;;;18.50;88.00;;;;;;5076483;28;20125;-88
2021/06/29 07:01:31;;;;;;;27.73;8.93;;;18.60;88.10;;;;;;5075129;28;20489;-90
2021/06/29 07:03:57;;;;;;;20.80;8.18;;;18.60;87.30;;;;;;5076351;28;20071;-88
2021/06/29 07:06:22;;;;;;;26.00;8.13;;;18.60;86.60;;;;;;5075974;28;20463;-87
2021/06/29 07:08:48;;;;;;;26.33;8.65;;;18.50;86.60;;;;;;5073248;28;20053;-88
2021/06/29 07:11:13;;;;;;;23.15;9.02;;;18.60;86.60;;;;;;5076300;28;20128;-89
2021/06/29 07:13:39;;;;;;;25.38;8.10;;;18.60;86.30;;;;;;5077984;28;20053;-88
2021/06/29 07:16:05;;;;;;;24.85;8.70;;;18.60;86.20;;;;;;5076610;28;20484;-88
2021/06/29 07:18:34;;;;;;;41.10;13.65;;;18.60;86.00;;;;;;5075792;28;20055;-88
2021/06/29 07:20:59;;;;;;;33.47;11.18;;;18.70;88.00;;;;;;5075424;28;20057;-88
2021/06/29 07:23:25;;;;;;;24.23;8.98;;;18.70;89.10;;;;;;5074774;28;20032;-88
2021/06/29 07:25:51;;;;;;;20.80;8.15;;;18.70;86.80;;;;;;5076230;28;20102;-88
2021/06/29 07:28:16;;;;;;;25.27;9.05;;;18.70;86.40;;;;;;5056709;28;20386;-88
2021/06/29 07:30:43;;;;;;;38.25;11.52;;;18.70;86.40;;;;;;5075762;28;20052;-87
2021/06/29 07:33:08;;;;;;;21.25;8.60;;;18.70;87.10;;;;;;5075175;28;20052;-84
2021/06/29 07:35:35;;;;;;;38.05;12.50;;;18.70;86.80;;;;;;5074600;28;20055;-87
2021/06/29 07:38:01;;;;;;;38.90;14.32;;;18.80;88.00;;;;;;5075723;28;20056;-87
2021/06/29 07:40:29;;;;;;;20.70;9.27;;;18.80;88.90;;;;;;5074310;28;20098;-88
2021/06/29 07:42:56;;;;;;;29.35;11.88;;;18.80;88.30;;;;;;5074561;28;20055;-92
2021/06/29 07:45:25;;;;;;;25.92;9.43;;;18.90;88.10;;;;;;5073974;28;20068;-90
2021/06/29 07:47:52;;;;;;;20.70;8.82;;;18.90;87.30;;;;;;5075708;28;20106;-90
2021/06/29 07:50:18;;;;;;;22.42;9.57;;;18.90;87.10;;;;;;5074557;28;20505;-86
2021/06/29 07:52:43;;;;;;;26.80;11.40;;;18.80;87.10;;;;;;5074304;28;20139;-86
2021/06/29 07:55:10;;;;;;;23.33;9.82;;;18.90;87.40;;;;;;5074777;28;20131;-88
2021/06/29 07:57:35;;;;;;;27.52;10.98;;;18.90;87.40;;;;;;5073015;28;20492;-85
2021/06/29 08:00:02;;;;;;;26.38;10.30;;;18.90;87.80;;;;;;5073646;28;20106;-87
2021/06/29 08:02:28;;;;;;;29.55;10.55;;;18.90;87.90;;;;;;5074339;28;20051;-85
2021/06/29 08:04:53;;;;;;;34.05;12.32;;;18.90;88.40;;;;;;5073754;28;20048;-83
2021/06/29 08:07:19;;;;;;;22.73;9.13;;;19.00;88.40;;;;;;5074835;28;20045;-86
2021/06/29 08:09:44;;;;;;;29.25;11.23;;;19.00;88.10;;;;;;5072940;28;20394;-86
2021/06/29 08:12:10;;;;;;;24.92;9.50;;;19.00;88.20;;;;;;5072528;28;20044;-86
2021/06/29 08:14:36;;;;;;;35.10;12.95;;;19.10;88.10;;;;;;5071671;28;20052;-82
2021/06/29 08:17:04;;;;;;;29.83;11.70;;;19.10;89.10;;;;;;5071759;28;20046;-88
2021/06/29 08:19:30;;;;;;;27.13;12.00;;;19.20;89.40;;;;;;5073241;28;20052;-92
2021/06/29 08:21:57;;;;;;;23.00;10.35;;;19.20;89.50;;;;;;5074011;28;20136;-92
2021/06/29 08:24:23;;;;;;;32.15;10.50;;;19.20;88.60;;;;;;5073173;28;20092;-90
2021/06/29 08:26:49;;;;;;;47.10;13.98;;;19.30;88.70;;;;;;5073823;28;20378;-89
2021/06/29 08:29:15;;;;;;;44.83;14.02;;;19.30;89.40;;;;;;5073916;28;20044;-89
2021/06/29 08:31:41;;;;;;;26.50;10.98;;;19.30;89.60;;;;;;5074441;28;20703;-93
2021/06/29 08:34:07;;;;;;;25.88;10.60;;;19.30;89.30;;;;;;5075284;28;20048;-89
2021/06/29 08:36:41;;;;;;;21.75;10.32;;;19.40;88.80;;;;;;5074783;28;20044;-89
2021/06/29 08:39:12;;;;;;;27.30;11.80;;;19.40;88.50;;;;;;5074301;28;20074;-89
2021/06/29 08:41:45;;;;;;;26.88;10.73;;;19.40;89.10;;;;;;5074779;28;20124;-90
2021/06/29 08:44:13;;;;;;;30.05;11.50;;;19.40;88.90;;;;;;5074987;28;20101;-90
2021/06/29 08:46:38;;;;;;;31.60;13.98;;;19.40;88.80;;;;;;5074075;28;20509;-89
2021/06/29 08:49:05;;;;;;;30.58;12.90;;;19.50;90.00;;;;;;5074554;28;20053;-90
2021/06/29 08:51:31;;;;;;;27.77;12.32;;;19.50;90.20;;;;;;5074389;28;20045;-91
2021/06/29 08:53:57;;;;;;;22.75;10.63;;;19.50;90.30;;;;;;5073764;28;20056;-90
2021/06/29 08:56:24;;;;;;;30.65;11.85;;;19.50;89.70;;;;;;5074178;28;20049;-89
2021/06/29 08:58:49;;;;;;;17.55;8.70;;;19.60;89.20;;;;;;5074712;28;20506;-89
2021/06/29 09:01:15;;;;;;;17.80;9.10;;;19.50;87.60;;;;;;5073825;28;20114;-90
2021/06/29 09:03:42;;;;;;;17.48;8.63;;;19.60;86.70;;;;;;5074215;28;20083;-89
2021/06/29 09:06:08;;;;;;;26.00;10.93;;;19.60;86.20;;;;;;5074572;28;20139;-89
2021/06/29 09:08:40;;;;;;;31.63;14.70;;;19.60;86.70;;;;;;5073223;28;20575;-89
2021/06/29 09:11:16;;;;;;;29.13;12.55;;;19.60;88.00;;;;;;5073968;28;20052;-89
2021/06/29 09:14:05;;;;;;;24.52;11.90;;;19.60;88.20;;;;;;5073409;28;20057;-90
2021/06/29 09:16:30;;;;;;;17.60;9.10;;;19.60;87.40;;;;;;5074087;28;20045;-89
2021/06/29 09:18:56;;;;;;;17.70;8.98;;;19.60;86.70;;;;;;5074149;28;20469;-88
2021/06/29 09:21:23;;;;;;;33.70;15.35;;;19.60;86.20;;;;;;5072983;28;20044;-89
2021/06/29 09:23:50;;;;;;;24.83;10.32;;;19.60;87.90;;;;;;5074146;28;20045;-89
2021/06/29 09:26:19;;;;;;;33.28;14.82;;;19.60;87.30;;;;;;5074207;28;20041;-89
2021/06/29 09:28:59;;;;;;;28.65;13.98;;;19.60;88.20;;;;;;5073228;28;20122;-89
2021/06/29 09:31:31;;;;;;;25.17;12.85;;;19.70;88.60;;;;;;5073696;28;20484;-89
2021/06/29 09:33:58;;;;;;;30.02;14.30;;;19.70;88.60;;;;;;5074001;28;20094;-90
2021/06/29 09:36:27;;;;;;;25.08;12.40;;;19.60;89.00;;;;;;5072934;28;20523;-89
2021/06/29 09:38:55;;;;;;;23.08;12.60;;;19.70;88.70;;;;;;5073885;28;20059;-90
2021/06/29 09:41:28;;;;;;;31.55;15.15;;;19.70;88.40;;;;;;5073887;28;20127;-91
2021/06/29 09:43:56;;;;;;;34.97;15.70;;;19.70;88.60;;;;;;5073919;28;20048;-88
2021/06/29 09:46:23;;;;;;;27.27;12.20;;;19.70;89.30;;;;;;5073352;28;20411;-89
2021/06/29 09:48:53;;;;;;;26.50;12.45;;;19.80;88.50;;;;;;5073086;28;20052;-90
2021/06/29 09:51:21;;;;;;;37.88;15.00;;;19.70;87.80;;;;;;5074020;28;20095;-89
2021/06/29 09:53:51;;;;;;;28.58;13.07;;;19.70;88.10;;;;;;5073933;28;20044;-91
2021/06/29 09:56:19;;;;;;;33.25;13.98;;;19.70;88.50;;;;;;5072788;28;20052;-84
2021/06/29 09:58:49;;;;;;;36.50;15.90;;;19.70;88.90;;;;;;5053002;28;20049;-89
2021/06/29 10:01:16;;;;;;;37.85;16.05;;;19.80;89.00;;;;;;5067917;28;20550;-88
2021/06/29 10:03:42;;;;;;;37.72;17.27;;;19.70;89.40;;;;;;5072122;28;20091;-88
2021/06/29 10:06:18;;;;;;;26.77;13.00;;;19.70;89.90;;;;;;5073491;28;20114;-88
2021/06/29 10:08:45;;;;;;;31.17;13.70;;;19.70;89.80;;;;;;5072728;28;20058;-88
2021/06/29 10:11:18;;;;;;;31.95;15.30;;;19.70;88.90;;;;;;5072494;28;20052;-88
2021/06/29 10:13:47;;;;;;;32.72;14.95;;;19.70;89.00;;;;;;5073204;28;20052;-88
2021/06/29 10:16:14;;;;;;;38.67;17.25;;;19.70;89.20;;;;;;5073242;28;20052;-88
2021/06/29 10:19:13;;;;;;;37.10;19.08;;;19.70;89.20;;;;;;5071845;28;20507;-87
2021/06/29 10:21:30;;;;;;;38.70;17.65;;;19.70;89.80;;;;;;5071761;28;20049;-88
2021/06/29 10:24:02;;;;;;;38.40;18.83;;;19.70;89.80;;;;;;5076521;28;20048;-87
2021/06/29 10:26:32;;;;;;;36.67;18.30;;;19.80;90.00;;;;;;5078827;28;20420;-87
2021/06/29 10:28:58;;;;;;;40.97;20.38;;;19.70;90.00;;;;;;5079228;28;20048;-88
2021/06/29 10:31:30;;;;;;;41.65;19.73;;;19.70;90.20;;;;;;5077580;28;20047;-88
2021/06/29 10:34:02;;;;;;;41.25;20.67;;;19.70;90.20;;;;;;5076648;28;20078;-88
2021/06/29 10:36:33;;;;;;;39.00;20.92;;;19.70;90.30;;;;;;5078413;28;20064;-83
2021/06/29 10:38:59;;;;;;;41.65;19.85;;;19.70;90.30;;;;;;5077295;28;20048;-83
2021/06/29 10:41:37;;;;;;;41.00;19.75;;;19.70;90.40;;;;;;5079003;28;20076;-83
2021/06/29 10:44:10;;;;;;;37.40;19.30;;;19.70;90.30;;;;;;5079191;28;20053;-84
2021/06/29 10:46:40;;;;;;;38.63;17.90;;;19.70;90.30;;;;;;5077890;28;20045;-83
2021/06/29 10:49:27;;;;;;;40.45;18.23;;;19.70;90.30;;;;;;5078734;28;20076;-83
2021/06/29 10:51:54;;;;;;;39.70;17.35;;;19.70;90.30;;;;;;5077932;28;20443;-83
2021/06/29 10:54:39;;;;;;;30.52;16.73;;;19.70;90.30;;;;;;5078301;28;20045;-82
2021/06/29 10:57:10;;;;;;;34.92;16.80;;;19.70;90.00;;;;;;5058480;28;20041;-85
2021/06/29 10:59:41;;;;;;;37.75;17.33;;;19.80;90.10;;;;;;5063908;28;20051;-82
2021/06/29 11:02:08;;;;;;;32.95;16.70;;;19.80;90.20;;;;;;5076568;28;20128;-83
2021/06/29 11:04:53;;;;;;;36.10;16.40;;;19.80;90.20;;;;;;5077912;28;20400;-84
2021/06/29 11:07:30;;;;;;;32.75;16.10;;;19.80;90.00;;;;;;5075546;28;20584;-83
2021/06/29 11:10:02;;;;;;;37.05;17.05;;;19.80;90.10;;;;;;5078665;28;20052;-83
2021/06/29 11:12:32;;;;;;;32.08;14.75;;;19.80;90.20;;;;;;5078326;28;20093;-83
2021/06/29 11:15:00;;;;;;;35.35;17.13;;;19.80;89.90;;;;;;5077002;28;20044;-82
2021/06/29 11:17:51;;;;;;;28.33;15.00;;;19.80;90.10;;;;;;5077950;28;20090;-85
2021/06/29 11:20:39;;;;;;;26.40;14.48;;;19.80;90.00;;;;;;5057914;28;20103;-85
2021/06/29 11:23:09;;;;;;;29.08;15.10;;;19.80;89.80;;;;;;5071499;28;20041;-85
2021/06/29 11:25:36;;;;;;;24.77;14.32;;;19.90;90.10;;;;;;5058172;28;20048;-85
2021/06/29 11:28:06;;;;;;;31.60;15.93;;;19.90;89.40;;;;;;5076389;28;20056;-84
2021/06/29 11:30:54;;;;;;;34.20;16.63;;;19.90;89.60;;;;;;5077886;28;20512;-85
2021/06/29 11:33:31;;;;;;;31.25;15.95;;;19.90;89.50;;;;;;5078069;28;20049;-84
2021/06/29 11:35:57;;;;;;;34.35;18.08;;;19.90;89.40;;;;;;5070936;28;20036;-85
2021/06/29 11:38:40;;;;;;;31.58;16.60;;;19.90;89.50;;;;;;5071423;28;20593;-84
2021/06/29 11:41:24;;;;;;;26.60;15.20;;;20.00;89.40;;;;;;5070531;28;20060;-83
2021/06/29 11:44:06;;;;;;;29.27;15.15;;;20.00;89.30;;;;;;5072196;28;20066;-85
2021/06/29 11:47:00;;;;;;;29.92;15.75;;;20.00;89.20;;;;;;5072479;28;20067;-84
2021/06/29 11:49:27;;;;;;;26.33;14.77;;;20.00;89.00;;;;;;5067261;28;20052;-84
2021/06/29 11:52:04;;;;;;;31.75;15.38;;;20.00;89.20;;;;;;5070650;28;20049;-84
2021/06/29 11:54:49;;;;;;;37.47;16.45;;;19.90;89.10;;;;;;5069972;28;20048;-84
2021/06/29 11:57:18;;;;;;;31.48;15.98;;;19.90;89.20;;;;;;5072761;28;20389;-84
2021/06/29 11:59:46;;;;;;;26.30;14.27;;;19.90;89.60;;;;;;5074453;28;20072;-83
2021/06/29 12:02:17;;;;;;;28.48;14.00;;;19.90;89.10;;;;;;5072635;28;20085;-83
2021/06/29 12:05:04;;;;;;;27.10;13.90;;;20.00;89.20;;;;;;5074082;28;20049;-83
2021/06/29 12:07:42;;;;;;;27.10;14.65;;;19.90;88.70;;;;;;5073788;28;20045;-83
2021/06/29 12:10:32;;;;;;;32.08;14.30;;;20.00;88.80;;;;;;5073474;28;20052;-83
2021/06/29 12:13:06;;;;;;;24.95;13.45;;;20.00;88.60;;;;;;5069421;28;20049;-83
2021/06/29 12:15:40;;;;;;;23.63;12.85;;;20.00;88.30;;;;;;5056570;28;20052;-83
2021/06/29 12:18:15;;;;;;;21.45;13.23;;;20.00;88.10;;;;;;5071270;28;20067;-83
2021/06/29 12:20:48;;;;;;;28.40;12.50;;;19.90;88.10;;;;;;5073600;28;20110;-83
2021/06/29 12:23:17;;;;;;;24.40;13.15;;;20.00;88.20;;;;;;5066385;28;20123;-85
2021/06/29 12:25:46;;;;;;;23.98;12.93;;;20.00;88.30;;;;;;5072988;28;20560;-82
2021/06/29 12:28:21;;;;;;;23.30;12.27;;;20.00;88.10;;;;;;5073813;28;20053;-89
2021/06/29 12:30:47;;;;;;;26.88;12.48;;;20.00;88.20;;;;;;5074265;28;20052;-91
2021/06/29 12:33:40;;;;;;;22.38;11.98;;;20.00;88.40;;;;;;5075026;28;20075;-88
2021/06/29 12:36:12;;;;;;;30.83;12.40;;;20.00;88.10;;;;;;5072766;28;20055;-86
2021/06/29 12:38:42;;;;;;;23.42;11.77;;;19.90;88.60;;;;;;5072059;28;20059;-88
2021/06/29 12:41:15;;;;;;;23.48;12.40;;;19.90;88.30;;;;;;5074377;28;20102;-89
2021/06/29 12:43:43;;;;;;;19.63;11.23;;;19.90;87.70;;;;;;5073371;28;20048;-88
2021/06/29 12:46:22;;;;;;;21.17;10.82;;;19.90;87.70;;;;;;5069750;28;20086;-89
2021/06/29 12:49:11;;;;;;;21.60;11.43;;;19.90;87.50;;;;;;5072074;28;20056;-89